Time;durP1;ratioP1;P1;durP2;ratioP2;P2;SDS_P1;SDS_P2;PMS_P1;PMS_P2;Temp;Humidity;BMP_temperature;BMP_pressure;BME280_temperature;BME280_humidity;BME280_pressure;Samples;Min_cycle;Max_cycle;Signal;HPM_P1;HPM_P2
2022/05/14 00:00:53;;;;;;;4.47;2.43;;;;;;;15.06;63.92;98025.38;6252554;28;20215;-66
2022/05/14 00:03:55;;;;;;;3.27;2.10;;;;;;;14.93;64.18;98016.88;6242430;28;20253;-66
2022/05/14 00:06:57;;;;;;;7.63;2.27;;;;;;;14.77;65.08;98028.91;6228457;28;20241;-66
2022/05/14 00:09:59;;;;;;;3.40;2.10;;;;;;;14.61;65.25;98025.13;6229195;28;20219;-67
2022/05/14 00:13:04;;;;;;;3.30;2.20;;;;;;;14.42;66.46;98020.66;6210967;28;20215;-67
2022/05/14 00:16:08;;;;;;;6.63;2.30;;;;;;;14.24;66.63;98027.59;6228311;28;20332;-66
2022/05/14 00:19:11;;;;;;;7.20;2.90;;;;;;;14.03;67.55;98030.34;6229304;28;20232;-66
2022/05/14 00:22:13;;;;;;;4.97;2.33;;;;;;;13.84;68.67;98036.44;6229194;28;20616;-66
2022/05/14 00:25:15;;;;;;;3.80;2.23;;;;;;;13.72;69.06;98032.19;6228998;28;20238;-66
2022/05/14 00:28:18;;;;;;;5.60;2.43;;;;;;;13.55;69.47;98032.84;6227991;28;20313;-67
2022/05/14 00:31:21;;;;;;;4.53;2.40;;;;;;;13.47;69.92;98037.97;6228504;28;20227;-67
2022/05/14 00:34:23;;;;;;;2.60;2.17;;;;;;;13.34;70.04;98037.34;6228052;28;20247;-66
2022/05/14 00:37:26;;;;;;;5.07;2.47;;;;;;;13.22;71.04;98040.06;6210687;28;20329;-66
2022/05/14 00:40:34;;;;;;;3.77;2.10;;;;;;;13.07;71.18;98035.22;6228361;28;20232;-67
2022/05/14 00:43:47;;;;;;;5.97;2.20;;;;;;;12.93;71.78;98034.56;6233103;28;20314;-66
2022/05/14 00:46:58;;;;;;;5.33;2.00;;;;;;;12.85;71.87;98037.00;6215240;28;20322;-67
2022/05/14 00:50:01;;;;;;;4.77;2.40;;;;;;;12.73;71.96;98039.84;6233066;28;20232;-67
2022/05/14 00:53:12;;;;;;;4.23;2.30;;;;;;;12.58;72.87;98037.47;6219609;28;20366;-66
2022/05/14 00:56:18;;;;;;;4.40;2.10;;;;;;;12.45;72.62;98042.13;6215663;28;20231;-66
2022/05/14 00:59:23;;;;;;;5.50;2.27;;;;;;;12.34;72.96;98046.63;6214396;28;20691;-67
2022/05/14 01:02:28;;;;;;;8.63;2.40;;;;;;;12.23;72.61;98046.63;6215463;28;20227;-67
2022/05/14 01:05:32;;;;;;;4.67;2.20;;;;;;;12.11;73.51;98046.66;6210607;28;20251;-67
2022/05/14 01:08:35;;;;;;;5.80;2.73;;;;;;;12.04;72.97;98049.94;6228029;28;20241;-68
2022/05/14 01:11:39;;;;;;;4.97;2.00;;;;;;;11.92;72.66;98049.09;6232773;28;20245;-67
2022/05/14 01:14:43;;;;;;;5.37;2.13;;;;;;;11.86;72.85;98038.19;6239213;28;20595;-67
2022/05/14 01:17:46;;;;;;;3.73;2.03;;;;;;;11.74;73.09;98035.50;6230708;28;20258;-69
2022/05/14 01:20:59;;;;;;;5.40;2.47;;;;;;;11.67;73.71;98036.97;6240182;28;20245;-69
2022/05/14 01:27:49;;;;;;;2.83;2.07;;;;;;;11.45;73.51;98037.81;6239796;28;20244;-68
2022/05/14 01:30:59;;;;;;;6.63;2.23;;;;;;;11.35;73.72;98036.84;6239339;28;20242;-68
2022/05/14 01:34:08;;;;;;;5.40;2.30;;;;;;;11.26;73.76;98034.06;6239207;28;20237;-68
2022/05/14 01:37:11;;;;;;;6.93;2.20;;;;;;;11.19;73.58;98036.34;6238890;28;20241;-68
2022/05/14 01:40:15;;;;;;;3.23;1.90;;;;;;;11.12;73.85;98034.28;6255209;28;20237;-67
2022/05/14 01:43:18;;;;;;;5.40;2.10;;;;;;;11.07;74.14;98037.31;6255575;28;20229;-68
2022/05/14 01:46:20;;;;;;;4.63;2.20;;;;;;;10.98;74.96;98038.81;6238537;28;20586;-68
2022/05/14 01:49:23;;;;;;;5.93;2.40;;;;;;;10.95;74.65;98043.50;6229481;28;20238;-68
2022/05/14 01:52:26;;;;;;;5.67;2.20;;;;;;;10.90;74.55;98037.72;6225736;28;20237;-68
2022/05/14 01:55:29;;;;;;;5.87;1.93;;;;;;;10.86;74.69;98034.50;6237403;28;20321;-68
2022/05/14 01:58:38;;;;;;;7.13;2.10;;;;;;;10.82;74.55;98033.03;6256322;28;20323;-68
2022/05/14 02:01:51;;;;;;;6.23;2.30;;;;;;;10.77;74.66;98034.34;6237705;28;20238;-69
2022/05/14 02:04:53;;;;;;;5.77;2.53;;;;;;;10.73;74.72;98041.63;6236527;28;20252;-68
2022/05/14 02:07:55;;;;;;;5.63;2.47;;;;;;;10.68;74.90;98038.53;6213561;28;20237;-68
2022/05/14 02:10:59;;;;;;;3.73;2.10;;;;;;;10.64;75.07;98039.69;6213740;28;20324;-68
2022/05/14 02:14:02;;;;;;;6.10;2.10;;;;;;;10.57;75.28;98043.75;6214131;28;20278;-68
2022/05/14 02:17:04;;;;;;;2.67;2.00;;;;;;;10.47;75.15;98034.84;6230482;28;20265;-68
2022/05/14 02:20:08;;;;;;;5.60;1.87;;;;;;;10.42;75.08;98045.72;6231024;28;20623;-68
2022/05/14 02:23:12;;;;;;;10.37;2.53;;;;;;;10.37;75.12;98042.59;6230666;28;20224;-68
2022/05/14 02:26:15;;;;;;;3.50;2.00;;;;;;;10.33;75.60;98036.69;6212718;28;20267;-68
2022/05/14 02:29:18;;;;;;;3.20;1.87;;;;;;;10.26;76.13;98040.75;6213677;28;20225;-69
2022/05/14 02:32:26;;;;;;;6.13;2.50;;;;;;;10.21;76.07;98044.66;6213281;28;20227;-68
2022/05/14 02:35:28;;;;;;;3.23;2.10;;;;;;;10.14;76.62;98038.97;6230816;28;20718;-68
2022/05/14 02:38:32;;;;;;;6.60;2.10;;;;;;;10.08;76.19;98047.28;6229680;28;20714;-68
2022/05/14 02:41:34;;;;;;;4.97;2.00;;;;;;;10.02;76.46;98039.00;6213267;28;20233;-68
2022/05/14 02:44:36;;;;;;;4.47;2.00;;;;;;;9.98;76.45;98044.47;6212753;28;20307;-68
2022/05/14 02:47:39;;;;;;;4.80;2.13;;;;;;;9.94;77.12;98044.84;6204656;28;20272;-68
2022/05/14 02:50:41;;;;;;;2.93;2.07;;;;;;;9.91;77.17;98040.63;6214727;28;20235;-68
2022/05/14 02:53:43;;;;;;;3.70;2.27;;;;;;;9.85;77.77;98043.69;6230112;28;20265;-68
2022/05/14 02:56:46;;;;;;;6.60;2.20;;;;;;;9.79;77.78;98045.91;6212207;28;20232;-67
2022/05/14 02:59:48;;;;;;;3.03;1.83;;;;;;;9.76;78.49;98043.50;6212761;28;20703;-68
2022/05/14 03:02:50;;;;;;;5.27;2.00;;;;;;;9.69;78.20;98045.72;6213423;28;20262;-67
2022/05/14 03:05:53;;;;;;;3.07;2.07;;;;;;;9.62;78.67;98053.22;6236387;28;20239;-68
2022/05/14 03:08:56;;;;;;;7.67;2.10;;;;;;;9.60;77.90;98051.66;6254333;28;20247;-68
2022/05/14 03:11:58;;;;;;;5.83;2.67;;;;;;;9.53;78.48;98053.88;6254952;28;20230;-68
2022/05/14 03:15:01;;;;;;;4.20;1.97;;;;;;;9.45;78.77;98058.00;6236534;28;20234;-68
2022/05/14 03:18:04;;;;;;;4.40;2.13;;;;;;;9.42;78.40;98056.41;6235819;28;20357;-67
2022/05/14 03:21:06;;;;;;;5.00;2.03;;;;;;;9.38;78.71;98054.97;6220410;28;20203;-68
2022/05/14 03:24:10;;;;;;;3.57;2.10;;;;;;;9.38;78.90;98054.13;6236237;28;20293;-68
2022/05/14 03:27:13;;;;;;;4.93;2.10;;;;;;;9.38;78.91;98069.94;6252802;28;20591;-68
2022/05/14 03:30:16;;;;;;;6.77;2.50;;;;;;;9.39;78.72;98067.16;6253983;28;20285;-68
2022/05/14 03:33:18;;;;;;;4.30;2.20;;;;;;;9.41;78.71;98078.44;6235607;28;20217;-68
2022/05/14 03:36:20;;;;;;;4.27;2.03;;;;;;;9.45;78.59;98079.94;6236620;28;20212;-68
2022/05/14 03:39:22;;;;;;;3.43;2.00;;;;;;;9.51;78.92;98079.47;6235181;28;20693;-68
2022/05/14 03:42:26;;;;;;;3.63;2.30;;;;;;;9.53;78.51;98074.97;6236055;28;20747;-68
2022/05/14 03:45:28;;;;;;;7.03;2.23;;;;;;;9.56;79.50;98081.81;6254510;28;20300;-68
2022/05/14 03:48:31;;;;;;;4.60;2.13;;;;;;;9.58;79.10;98086.00;6235427;28;20227;-69
2022/05/14 03:51:33;;;;;;;5.07;2.00;;;;;;;9.56;79.47;98087.94;6253250;28;20685;-68
2022/05/14 03:54:35;;;;;;;4.07;2.10;;;;;;;9.56;79.10;98089.72;6253380;28;20227;-69
2022/05/14 03:57:37;;;;;;;4.43;1.97;;;;;;;9.58;79.92;98093.09;6235302;28;20349;-69
2022/05/14 04:00:40;;;;;;;3.53;2.07;;;;;;;9.61;78.81;98104.25;6227002;28;20666;-68
2022/05/14 04:03:42;;;;;;;2.70;2.10;;;;;;;9.62;79.55;98105.09;6241794;28;20317;-68
2022/05/14 04:06:45;;;;;;;4.07;2.30;;;;;;;9.62;79.67;98105.09;6254105;28;20233;-68
2022/05/14 04:09:48;;;;;;;5.03;2.10;;;;;;;9.65;79.67;98111.94;6251880;28;20270;-68
2022/05/14 04:12:50;;;;;;;3.00;1.87;;;;;;;9.66;79.58;98111.00;6235362;28;20219;-68
2022/05/14 04:15:53;;;;;;;2.30;1.97;;;;;;;9.68;78.93;98115.22;6251298;28;20226;-68
2022/05/14 04:18:56;;;;;;;5.40;2.30;;;;;;;9.68;79.09;98109.94;6240794;28;20259;-68
2022/05/14 04:21:59;;;;;;;5.10;2.23;;;;;;;9.66;79.10;98109.22;6240019;28;20230;-68
2022/05/14 04:25:03;;;;;;;3.77;2.17;;;;;;;9.70;78.92;98115.09;6258147;28;20264;-68
2022/05/14 04:28:06;;;;;;;3.60;1.90;;;;;;;9.73;79.49;98115.72;6256659;28;20650;-68
2022/05/14 04:31:08;;;;;;;5.27;2.43;;;;;;;9.73;79.80;98118.38;6239270;28;20234;-68
2022/05/14 04:34:11;;;;;;;3.00;1.80;;;;;;;9.70;79.37;98123.00;6239870;28;20238;-68
2022/05/14 04:37:15;;;;;;;10.70;2.30;;;;;;;9.71;79.58;98127.31;6242054;28;20479;-67
2022/05/14 04:40:18;;;;;;;7.80;2.00;;;;;;;9.72;80.00;98127.22;6255838;28;20583;-68
2022/05/14 04:43:21;;;;;;;4.20;2.23;;;;;;;9.79;80.06;98130.25;6235081;28;20235;-68
2022/05/14 04:46:23;;;;;;;8.07;2.97;;;;;;;9.81;80.30;98125.72;6239561;28;20606;-68
2022/05/14 04:49:26;;;;;;;3.93;1.97;;;;;;;9.80;80.63;98129.31;6231180;28;20227;-67
2022/05/14 04:52:28;;;;;;;5.23;2.63;;;;;;;9.79;80.23;98131.09;6232293;28;20227;-68
2022/05/14 04:55:32;;;;;;;3.80;2.40;;;;;;;9.81;79.93;98134.47;6239884;28;20235;-67
2022/05/14 04:58:35;;;;;;;4.03;2.40;;;;;;;9.86;80.16;98129.75;6230601;28;20232;-67
2022/05/14 05:05:08;;;;;;;5.00;2.73;;;;;;;9.94;80.32;98137.94;6256752;28;20227;-67
2022/05/14 05:08:11;;;;;;;4.20;2.77;;;;;;;9.98;80.29;98136.75;6255614;28;20750;-67
2022/05/14 05:11:14;;;;;;;5.60;2.57;;;;;;;10.00;80.77;98137.50;6238947;28;20223;-67
2022/05/14 05:14:17;;;;;;;4.43;2.80;;;;;;;10.08;80.54;98136.97;6256537;28;20310;-67
2022/05/14 05:17:19;;;;;;;6.00;2.50;;;;;;;10.20;80.22;98144.03;6255657;28;20281;-67
2022/05/14 05:20:21;;;;;;;7.47;2.90;;;;;;;10.32;80.28;98150.25;6255216;28;20223;-68
2022/05/14 05:23:25;;;;;;;5.77;3.60;;;;;;;10.42;79.93;98142.50;6256175;28;20237;-68
2022/05/14 05:26:27;;;;;;;6.77;3.60;;;;;;;10.55;79.84;98146.78;6255041;28;20610;-68
2022/05/14 05:29:29;;;;;;;5.67;3.80;;;;;;;10.65;79.01;98154.88;6255228;28;20231;-68
2022/05/14 05:32:31;;;;;;;11.17;5.13;;;;;;;10.84;77.30;98152.56;6257639;28;20227;-68
2022/05/14 05:35:33;;;;;;;9.27;4.80;;;;;;;11.21;72.17;98152.47;6261576;28;20238;-68
2022/05/14 05:38:37;;;;;;;8.47;4.93;;;;;;;11.48;72.13;98157.47;6262386;28;20239;-68
2022/05/14 05:41:39;;;;;;;9.77;4.60;;;;;;;11.65;70.10;98154.38;6242042;28;20231;-68
2022/05/14 05:44:42;;;;;;;7.70;4.20;;;;;;;11.86;69.30;98158.03;6257982;28;20746;-68
2022/05/14 05:47:44;;;;;;;6.53;4.40;;;;;;;11.95;69.66;98167.06;6248734;28;20251;-68
2022/05/14 05:50:48;;;;;;;5.20;3.67;;;;;;;12.00;69.68;98172.81;6256389;28;20748;-68
2022/05/14 05:57:11;;;;;;;5.67;3.73;;;;;;;12.05;69.94;98173.31;6248118;28;20233;-68
2022/05/14 06:00:20;;;;;;;7.90;2.80;;;;;;;12.18;68.48;98174.00;6236088;28;20208;-68
2022/05/14 06:03:23;;;;;;;3.63;2.40;;;;;;;12.31;67.27;98169.44;6231448;28;20317;-68
2022/05/14 06:06:25;;;;;;;4.17;2.27;;;;;;;12.39;67.41;98174.13;6230625;28;20241;-68
2022/05/14 06:09:29;;;;;;;2.70;1.90;;;;;;;12.49;66.67;98178.56;6231261;28;20223;-68
2022/05/14 06:12:32;;;;;;;7.50;1.60;;;;;;;12.56;66.54;98173.63;6230799;28;20239;-68
2022/05/14 06:15:34;;;;;;;5.53;1.70;;;;;;;12.72;63.07;98179.34;6230308;28;20237;-67
2022/05/14 06:18:37;;;;;;;2.20;1.40;;;;;;;12.87;63.08;98179.94;6231074;28;20233;-68
2022/05/14 06:21:40;;;;;;;1.73;1.17;;;;;;;12.94;62.79;98179.31;6230190;28;20230;-68
2022/05/14 06:24:42;;;;;;;1.53;1.40;;;;;;;13.14;62.09;98175.03;6229797;28;20279;-68
2022/05/14 06:27:45;;;;;;;4.83;1.60;;;;;;;13.37;61.03;98180.25;6230568;28;20279;-68
2022/05/14 06:30:47;;;;;;;2.17;1.53;;;;;;;13.57;60.86;98176.75;6230155;28;20236;-68
2022/05/14 06:33:49;;;;;;;2.30;1.50;;;;;;;13.77;61.06;98181.22;6229526;28;20235;-68
2022/05/14 06:36:52;;;;;;;2.83;1.53;;;;;;;13.91;59.80;98177.38;6228683;28;20234;-68
2022/05/14 06:39:54;;;;;;;2.23;1.73;;;;;;;14.18;56.83;98188.25;6227729;28;20248;-69
2022/05/14 06:42:56;;;;;;;4.63;1.40;;;;;;;14.50;57.36;98187.28;6229911;28;20236;-69
2022/05/14 06:45:59;;;;;;;5.77;1.70;;;;;;;14.76;57.25;98191.13;6212638;28;20238;-68
2022/05/14 06:49:02;;;;;;;3.83;1.37;;;;;;;14.88;54.89;98194.50;6230029;28;20309;-68
2022/05/14 06:52:07;;;;;;;3.00;1.30;;;;;;;15.03;56.85;98188.66;6230544;28;20281;-68
2022/05/14 06:55:12;;;;;;;2.70;1.30;;;;;;;15.36;54.97;98173.28;6229245;28;20581;-68
2022/05/14 06:58:21;;;;;;;1.37;1.20;;;;;;;15.64;53.96;98192.88;6228777;28;20235;-68
2022/05/14 07:01:23;;;;;;;3.00;1.20;;;;;;;15.85;52.76;98186.41;6211678;28;20232;-68
2022/05/14 07:07:47;;;;;;;3.10;1.47;;;;;;;16.44;50.93;98181.69;6253271;28;20734;-68
2022/05/14 07:10:49;;;;;;;3.30;1.10;;;;;;;16.85;50.58;98181.22;6254245;28;20311;-69
2022/05/14 07:13:52;;;;;;;2.90;1.40;;;;;;;17.11;49.23;98185.81;6235822;28;20255;-67
2022/05/14 07:16:54;;;;;;;5.50;1.47;;;;;;;17.30;46.91;98188.31;6253923;28;20227;-68
2022/05/14 07:19:56;;;;;;;4.83;1.40;;;;;;;17.66;45.76;98181.16;6253349;28;20231;-68
2022/05/14 07:22:59;;;;;;;3.10;1.60;;;;;;;18.08;44.81;98178.59;6252972;28;20226;-68
2022/05/14 07:26:05;;;;;;;4.43;1.30;;;;;;;18.47;44.24;98173.63;6253811;28;20221;-68
2022/05/14 07:29:12;;;;;;;2.53;1.23;;;;;;;18.42;45.17;98181.28;6254094;28;20238;-68
2022/05/14 07:32:17;;;;;;;2.60;1.03;;;;;;;18.65;44.84;98174.41;6253655;28;20237;-68
2022/05/14 07:35:19;;;;;;;4.40;1.27;;;;;;;18.82;44.91;98175.28;6253161;28;20318;-68
2022/05/14 07:38:22;;;;;;;4.97;1.20;;;;;;;19.02;43.17;98173.16;6252765;28;20656;-68
2022/05/14 07:41:25;;;;;;;3.77;1.40;;;;;;;19.48;42.13;98175.25;6253206;28;20229;-68
2022/05/14 07:44:33;;;;;;;2.83;0.83;;;;;;;19.45;40.64;98177.41;6252065;28;20231;-68
2022/05/14 07:47:37;;;;;;;5.50;1.50;;;;;;;19.56;41.60;98173.59;6235669;28;20579;-69
2022/05/14 07:50:39;;;;;;;2.87;1.23;;;;;;;20.03;40.40;98173.72;6252086;28;20746;-69
2022/05/14 07:53:42;;;;;;;3.80;1.00;;;;;;;20.20;39.82;98170.81;6254715;28;20226;-69
2022/05/14 07:56:44;;;;;;;2.13;1.00;;;;;;;20.25;40.11;98171.16;6240212;28;20250;-70
2022/05/14 07:59:47;;;;;;;1.67;0.97;;;;;;;20.79;41.13;98165.06;6239488;28;20226;-69
2022/05/14 08:02:49;;;;;;;3.47;1.23;;;;;;;20.68;38.42;98177.03;6253271;28;20370;-70
2022/05/14 08:05:51;;;;;;;3.23;1.43;;;;;;;20.89;38.20;98171.91;6252511;28;20312;-68
2022/05/14 08:08:54;;;;;;;3.00;1.00;;;;;;;21.40;37.57;98172.28;6252117;28;20322;-67
2022/05/14 08:11:58;;;;;;;4.97;1.20;;;;;;;21.59;37.51;98162.88;6234857;28;20309;-69
2022/05/14 08:15:02;;;;;;;3.67;1.10;;;;;;;21.86;36.18;98150.75;6244096;28;20314;-68
2022/05/14 08:18:04;;;;;;;2.33;1.40;;;;;;;22.27;36.36;98160.06;6234903;28;20214;-70
2022/05/14 08:24:36;;;;;;;3.30;1.10;;;;;;;22.89;36.06;98154.28;6253060;28;20361;-71
2022/05/14 08:27:47;;;;;;;4.07;1.30;;;;;;;23.46;34.97;98148.84;6234006;28;20239;-64
2022/05/14 08:30:49;;;;;;;4.77;1.40;;;;;;;23.58;34.90;98154.59;6252462;28;20326;-64
2022/05/14 08:33:52;;;;;;;3.80;1.17;;;;;;;22.64;34.39;98142.97;6252851;28;20237;-67
2022/05/14 08:36:54;;;;;;;3.67;0.90;;;;;;;22.81;35.17;98151.69;6251866;28;20242;-68
2022/05/14 08:39:56;;;;;;;3.53;1.20;;;;;;;23.10;34.61;98145.41;6234381;28;20242;-67
2022/05/14 08:43:04;;;;;;;2.43;1.10;;;;;;;23.34;35.17;98139.66;6253500;28;20296;-69
2022/05/14 08:46:11;;;;;;;4.93;1.40;;;;;;;23.39;33.77;98139.06;6252411;28;20379;-68
2022/05/14 08:49:18;;;;;;;3.47;1.30;;;;;;;23.33;34.61;98135.28;6251524;28;20227;-68
2022/05/14 08:52:24;;;;;;;2.10;1.10;;;;;;;22.90;34.69;98136.25;6252430;28;20587;-69
2022/05/14 08:55:37;;;;;;;3.83;1.50;;;;;;;22.93;35.08;98142.13;6250809;28;20320;-69
2022/05/14 08:59:00;;;;;;;2.77;1.40;;;;;;;23.83;34.05;98125.38;6251428;28;20239;-68
2022/05/14 09:02:33;;;;;;;2.47;1.17;;;;;;;24.53;32.95;98125.19;6227763;28;20602;-68
2022/05/14 09:05:37;;;;;;;3.87;1.43;;;;;;;24.60;33.57;98115.25;6204176;28;20240;-70
2022/05/14 09:08:40;;;;;;;3.13;1.20;;;;;;;24.46;35.20;98118.09;6204817;28;20248;-68
2022/05/14 09:11:58;;;;;;;2.77;1.10;;;;;;;24.93;34.16;98111.88;6188273;28;20232;-68
2022/05/14 09:15:11;;;;;;;3.73;1.17;;;;;;;25.28;33.42;98113.41;6187561;28;20772;-69
2022/05/14 09:18:27;;;;;;;2.47;0.90;;;;;;;25.10;33.09;98131.22;6204444;28;20225;-68
2022/05/14 09:21:35;;;;;;;4.03;1.30;;;;;;;24.62;33.04;98123.16;6203899;28;20290;-69
2022/05/14 09:24:46;;;;;;;3.23;1.10;;;;;;;24.95;32.46;98107.13;6203436;28;20220;-69
2022/05/14 09:27:56;;;;;;;2.10;1.27;;;;;;;25.24;32.31;98114.88;6204747;28;20228;-69
2022/05/14 09:30:58;;;;;;;3.47;1.20;;;;;;;25.19;31.71;98114.63;6196323;28;20237;-64
2022/05/14 09:34:10;;;;;;;1.97;1.10;;;;;;;24.92;32.08;98102.94;6203230;28;20240;-69
2022/05/14 09:37:20;;;;;;;3.73;1.23;;;;;;;24.82;33.44;98104.34;6203579;28;20371;-68
2022/05/14 09:40:27;;;;;;;2.70;1.20;;;;;;;24.74;30.98;98099.13;6204813;28;20247;-68
2022/05/14 09:43:36;;;;;;;3.77;1.10;;;;;;;25.14;31.50;98100.09;6230665;28;20304;-68
2022/05/14 09:46:38;;;;;;;1.45;1.23;;;;;;;25.53;30.42;98108.22;6231070;28;20604;-69
2022/05/14 09:49:52;;;;;;;1.50;1.17;;;;;;;25.78;30.75;98111.16;6231842;28;20236;-68
2022/05/14 09:53:05;;;;;;;2.83;1.30;;;;;;;26.08;30.09;98093.44;6230992;28;20235;-70
2022/05/14 09:57:05;;;;;;;3.80;1.30;;;;;;;26.40;30.97;98088.16;6230788;28;20234;-69
2022/05/14 10:00:27;;;;;;;3.75;1.10;;;;;;;26.60;29.53;98093.50;6118457;28;20239;-69
2022/05/14 10:03:55;;;;;;;2.10;1.20;;;;;;;26.54;30.01;98087.09;6237906;28;20223;-69
2022/05/14 10:07:14;;;;;;;2.90;1.20;;;;;;;26.75;28.97;98080.53;6246766;28;20241;-69
2022/05/14 10:10:25;;;;;;;3.55;1.35;;;;;;;26.46;30.93;98081.88;6255310;28;20238;-68
2022/05/14 10:13:50;;;;;;;1.88;1.05;;;;;;;26.57;29.31;98083.94;6255117;28;20626;-69
2022/05/14 10:17:15;;;;;;;5.50;1.33;;;;;;;26.49;27.44;98069.81;6254956;28;20368;-68
2022/05/14 10:20:33;;;;;;;2.55;1.10;;;;;;;26.85;30.98;98067.34;6253837;28;20638;-68
2022/05/14 10:27:52;;;;;;;2.05;1.17;;;;;;;27.11;29.14;98061.78;6157138;28;20789;-69
2022/05/14 10:31:04;;;;;;;3.28;1.30;;;;;;;27.25;29.67;98064.41;6241630;28;20231;-68
2022/05/14 10:34:16;;;;;;;4.10;1.65;;;;;;;27.66;28.45;98059.28;6249382;28;20378;-68
2022/05/14 10:37:35;;;;;;;3.45;1.40;;;;;;;27.52;27.73;98061.25;6254520;28;20235;-69
2022/05/14 10:40:44;;;;;;;2.38;1.35;;;;;;;27.28;28.96;98050.41;6252805;28;20599;-69
2022/05/14 10:43:49;;;;;;;1.98;1.45;;;;;;;27.57;29.44;98046.22;6237476;28;20227;-68
2022/05/14 10:46:53;;;;;;;2.63;1.40;;;;;;;28.31;29.81;98042.56;6254396;28;20238;-69
2022/05/14 10:50:06;;;;;;;4.53;1.60;;;;;;;28.55;27.26;98044.38;6253444;28;20254;-69
2022/05/14 10:53:09;;;;;;;3.33;1.50;;;;;;;28.34;28.01;98050.25;6254272;28;20332;-69
2022/05/14 10:56:16;;;;;;;3.47;1.55;;;;;;;28.08;28.00;98044.03;6253675;28;20223;-70
2022/05/14 10:59:33;;;;;;;4.35;1.90;;;;;;;27.80;26.87;98041.84;6254291;28;20601;-70
2022/05/14 11:02:52;;;;;;;5.18;1.80;;;;;;;28.07;28.79;98030.69;6236528;28;20766;-70
2022/05/14 11:06:08;;;;;;;2.70;1.75;;;;;;;28.63;28.17;98028.56;6236144;28;20581;-69
2022/05/14 11:09:20;;;;;;;3.10;1.55;;;;;;;28.84;27.53;98031.88;6253470;28;20227;-68
2022/05/14 11:12:22;;;;;;;3.45;1.83;;;;;;;29.13;27.50;98025.56;6253775;28;20227;-69
2022/05/14 11:15:27;;;;;;;2.80;1.58;;;;;;;29.49;28.19;98015.59;6253457;28;20231;-70
2022/05/14 11:18:30;;;;;;;2.67;1.92;;;;;;;29.86;27.35;98011.56;6226469;28;20230;-69
2022/05/14 11:21:42;;;;;;;3.08;2.00;;;;;;;29.97;27.08;98018.91;6242169;28;20226;-70
2022/05/14 11:24:45;;;;;;;4.38;2.53;;;;;;;30.39;26.69;98013.25;6252245;28;20231;-70
2022/05/14 11:28:32;;;;;;;5.00;2.30;;;;;;;30.70;27.00;98012.81;6252085;28;20235;-69
2022/05/14 11:31:39;;;;;;;3.03;2.00;;;;;;;30.76;26.62;98006.38;6249587;28;20412;-69
2022/05/14 11:34:55;;;;;;;3.10;2.10;;;;;;;30.18;28.28;98012.00;6251336;28;20393;-69
2022/05/14 11:37:57;;;;;;;2.95;2.00;;;;;;;30.47;27.01;98010.16;6253022;28;20272;-69
2022/05/14 11:41:02;;;;;;;3.95;2.47;;;;;;;30.92;26.44;97996.59;6251572;28;20227;-69
2022/05/14 11:44:06;;;;;;;3.22;2.40;;;;;;;30.77;26.76;98005.31;6252532;28;20230;-69
2022/05/14 11:47:41;;;;;;;4.50;2.50;;;;;;;30.30;26.42;98010.09;6245043;28;20242;-69
2022/05/14 11:50:58;;;;;;;4.72;2.17;;;;;;;30.26;25.87;97991.75;6228348;28;20610;-69
2022/05/14 11:54:07;;;;;;;1.75;1.50;;;;;;;30.16;26.64;97986.09;6251823;28;20237;-71
2022/05/14 11:57:26;;;;;;;2.55;1.98;;;;;;;30.28;27.06;98011.41;6251949;28;20203;-70
2022/05/14 12:00:34;;;;;;;2.85;1.92;;;;;;;30.06;27.60;97979.34;6252595;28;20235;-70
2022/05/14 12:03:40;;;;;;;2.97;2.38;;;;;;;29.88;26.79;97974.03;6251513;28;20757;-70
2022/05/14 12:07:05;;;;;;;4.00;2.30;;;;;;;29.42;26.70;97982.25;6251676;28;20215;-70
2022/05/14 12:10:52;;;;;;;3.33;2.17;;;;;;;29.48;29.62;97986.72;6255175;28;20238;-71
2022/05/14 12:14:09;;;;;;;3.55;1.90;;;;;;;30.03;27.61;97974.41;6253004;28;20277;-72
2022/05/14 12:17:18;;;;;;;3.30;1.58;;;;;;;30.77;27.04;97963.59;6245799;28;20223;-70
2022/05/14 12:20:25;;;;;;;2.75;1.58;;;;;;;31.44;25.24;97964.50;6252572;28;20231;-72
2022/05/14 12:23:54;;;;;;;2.92;1.77;;;;;;;31.72;24.29;97952.66;6252043;28;20235;-72
2022/05/14 12:26:57;;;;;;;2.95;1.75;;;;;;;31.70;25.61;97973.09;6241609;28;20235;-70
2022/05/14 12:30:02;;;;;;;3.47;2.00;;;;;;;31.32;24.65;97961.03;6249637;28;20607;-71
2022/05/14 12:33:19;;;;;;;1.48;1.30;;;;;;;31.26;24.08;97953.81;6251107;28;20247;-70
2022/05/14 12:36:23;;;;;;;2.55;1.50;;;;;;;31.41;23.76;97953.25;6251365;28;20229;-74
2022/05/14 12:39:29;;;;;;;1.88;1.33;;;;;;;31.60;22.82;97948.34;6237700;28;20326;-68
2022/05/14 12:42:37;;;;;;;1.83;1.35;;;;;;;31.48;22.26;97949.25;6255008;28;20237;-72
2022/05/14 12:45:43;;;;;;;2.72;1.20;;;;;;;31.06;21.78;97937.94;6254304;28;20219;-71
2022/05/14 12:48:51;;;;;;;1.60;1.10;;;;;;;31.01;22.98;97950.66;6256132;28;20629;-70
2022/05/14 12:51:58;;;;;;;3.95;1.48;;;;;;;30.97;21.82;97944.88;6255583;28;20782;-70
2022/05/14 12:55:13;;;;;;;3.25;1.15;;;;;;;30.41;22.70;97932.13;6256639;28;20729;-70
2022/05/14 12:58:19;;;;;;;2.28;1.13;;;;;;;30.89;23.13;97931.66;6237335;28;21033;-70
2022/05/14 13:01:23;;;;;;;2.35;1.30;;;;;;;31.13;23.10;97926.91;6237557;28;20315;-70
2022/05/14 13:04:38;;;;;;;2.97;1.08;;;;;;;31.62;22.79;97933.38;6260127;28;20262;-70
2022/05/14 13:07:46;;;;;;;2.63;1.05;;;;;;;32.09;22.88;97927.44;6245063;28;20698;-70
2022/05/14 13:10:58;;;;;;;3.63;1.40;;;;;;;31.70;22.46;97913.03;6256241;28;20720;-69
2022/05/14 13:14:15;;;;;;;2.35;1.10;;;;;;;31.93;22.73;97921.00;6239007;28;20238;-71
2022/05/14 13:17:18;;;;;;;2.40;1.30;;;;;;;31.96;23.17;97909.53;6274919;28;20714;-70
2022/05/14 13:20:25;;;;;;;1.92;1.10;;;;;;;32.45;21.76;97899.47;6239857;28;21153;-71
2022/05/14 13:23:28;;;;;;;3.08;1.30;;;;;;;32.48;21.20;97900.84;6255587;28;20223;-70
2022/05/14 13:26:35;;;;;;;2.15;1.23;;;;;;;32.25;21.04;97901.97;6257699;28;20650;-70
2022/05/14 13:29:42;;;;;;;4.15;1.20;;;;;;;32.65;20.61;97907.03;6261128;28;20230;-70
2022/05/14 13:32:45;;;;;;;2.42;1.40;;;;;;;32.56;21.16;97890.28;6232084;28;20228;-70
2022/05/14 13:39:16;;;;;;;2.20;1.08;;;;;;;32.37;21.12;97882.72;6255647;28;20682;-69
2022/05/14 13:42:32;;;;;;;2.78;1.20;;;;;;;32.42;22.10;97880.03;6240524;28;20215;-70
2022/05/14 13:45:38;;;;;;;1.15;1.05;;;;;;;33.16;20.05;97875.47;6238830;28;20249;-71
2022/05/14 13:48:47;;;;;;;2.17;1.30;;;;;;;33.69;20.08;97874.47;6236365;28;20235;-70
2022/05/14 13:51:54;;;;;;;2.38;1.40;;;;;;;34.10;20.74;97880.13;6237987;28;20223;-70
2022/05/14 13:55:26;;;;;;;2.35;0.90;;;;;;;35.09;19.00;97874.25;6254316;28;20693;-69
2022/05/14 13:58:31;;;;;;;2.30;1.42;;;;;;;36.20;18.00;97866.78;6231817;28;20236;-70
2022/05/14 14:01:45;;;;;;;2.72;1.17;;;;;;;37.07;17.22;97870.59;6254083;28;20234;-70
2022/05/14 14:04:56;;;;;;;3.28;1.40;;;;;;;37.94;15.18;97863.03;6255450;28;20306;-70
2022/05/14 14:07:59;;;;;;;3.35;1.27;;;;;;;38.68;15.48;97855.97;6256316;28;20320;-70
2022/05/14 14:11:01;;;;;;;3.63;1.35;;;;;;;40.65;13.98;97853.19;6237225;28;20238;-70
2022/05/14 14:14:03;;;;;;;2.10;1.40;;;;;;;41.66;12.80;97851.72;6254942;28;20233;-69
2022/05/14 14:17:06;;;;;;;4.53;1.40;;;;;;;42.29;12.42;97851.22;6251662;28;20314;-70
2022/05/14 14:20:11;;;;;;;2.60;1.40;;;;;;;42.49;12.44;97849.81;6237001;28;20233;-70
2022/05/14 14:23:21;;;;;;;2.15;1.10;;;;;;;43.35;12.58;97844.13;6254230;28;20596;-70
2022/05/14 14:26:24;;;;;;;4.55;1.30;;;;;;;43.26;12.05;97846.94;6252007;28;20599;-69
2022/05/14 14:29:26;;;;;;;2.10;1.40;;;;;;;42.56;11.78;97844.56;6250381;28;20235;-69
2022/05/14 14:32:29;;;;;;;2.97;1.30;;;;;;;43.54;11.68;97840.94;6255154;28;20227;-69
2022/05/14 14:35:31;;;;;;;2.55;1.05;;;;;;;43.75;11.32;97837.13;6255335;28;20223;-70
2022/05/14 14:38:34;;;;;;;2.47;1.25;;;;;;;43.95;10.83;97830.00;6223809;28;20243;-69
2022/05/14 14:41:36;;;;;;;2.75;1.25;;;;;;;44.38;10.82;97831.69;6243443;28;20234;-76
2022/05/14 14:44:40;;;;;;;2.92;1.25;;;;;;;44.69;10.52;97831.25;6248222;28;20241;-73
2022/05/14 14:47:44;;;;;;;1.50;1.20;;;;;;;44.81;10.43;97829.34;6242942;28;20212;-69
2022/05/14 14:50:46;;;;;;;3.05;1.20;;;;;;;44.91;9.81;97828.13;6240553;28;20706;-71
2022/05/14 14:53:48;;;;;;;1.38;1.10;;;;;;;44.78;9.97;97830.03;6239438;28;20226;-76
2022/05/14 14:56:51;;;;;;;1.40;0.90;;;;;;;44.20;10.36;97830.16;6245024;28;20326;-67
2022/05/14 14:59:53;;;;;;;1.52;1.17;;;;;;;44.38;10.50;97829.72;6254077;28;20240;-67
2022/05/14 15:03:18;;;;;;;2.22;1.23;;;;;;;44.70;10.69;97822.56;6250684;28;20245;-64